createdAt,value
2023-02-07T00:01:35.377Z,0.10
2023-02-07T00:04:03.661Z,0.10
2023-02-07T00:06:36.186Z,0.20
2023-02-07T00:09:09.339Z,0.20
2023-02-07T00:11:40.993Z,0.20
2023-02-07T00:14:12.458Z,0.10
2023-02-07T00:16:40.775Z,0.20
2023-02-07T00:19:09.779Z,0.10
2023-02-07T00:21:39.333Z,0.10
2023-02-07T00:24:08.046Z,0.20
2023-02-07T00:26:36.227Z,0.10
2023-02-07T00:29:04.975Z,0.20
2023-02-07T00:31:36.313Z,0.20
2023-02-07T00:34:07.870Z,0.20
2023-02-07T00:36:40.061Z,0.20
2023-02-07T00:39:12.598Z,0.20
2023-02-07T00:41:41.404Z,0.20
2023-02-07T00:44:10.191Z,0.20
2023-02-07T00:46:39.241Z,0.20
2023-02-07T00:49:08.092Z,0.10
2023-02-07T00:51:36.041Z,0.13
2023-02-07T00:54:05.740Z,0.17
2023-02-07T00:56:35.020Z,0.10
2023-02-07T00:59:03.302Z,0.10
2023-02-07T01:01:31.642Z,0.20
2023-02-07T01:03:59.824Z,0.10
2023-02-07T01:06:29.566Z,0.20
2023-02-07T01:08:59.117Z,0.20
2023-02-07T01:11:30.703Z,0.20
2023-02-07T01:14:00.751Z,0.10
2023-02-07T01:16:32.378Z,0.10
2023-02-07T01:19:05.413Z,0.20
2023-02-07T01:21:33.513Z,0.20
2023-02-07T01:24:01.434Z,0.20
2023-02-07T01:26:31.010Z,0.20
2023-02-07T01:28:58.968Z,0.20
2023-02-07T01:31:27.194Z,0.20
2023-02-07T01:33:56.895Z,0.20
2023-02-07T01:36:28.753Z,0.20
2023-02-07T01:38:57.936Z,0.20
2023-02-07T01:41:28.616Z,0.17
2023-02-07T01:44:04.846Z,0.20
2023-02-07T01:46:35.332Z,0.20
2023-02-07T01:49:09.479Z,0.20
2023-02-07T01:51:39.709Z,0.13
2023-02-07T01:54:12.175Z,0.20
2023-02-07T01:56:46.440Z,0.20
2023-02-07T01:59:17.040Z,0.10
2023-02-07T02:01:46.690Z,0.20
2023-02-07T02:04:14.778Z,0.20
2023-02-07T02:06:44.313Z,0.20
2023-02-07T02:09:16.998Z,0.20
2023-02-07T02:12:24.523Z,0.20
2023-02-07T02:15:20.986Z,0.20
2023-02-07T02:18:08.466Z,0.20
2023-02-07T02:21:21.215Z,0.30
2023-02-07T02:24:27.073Z,0.20
2023-02-07T02:27:05.124Z,0.20
2023-02-07T02:30:01.850Z,0.20
2023-02-07T02:33:35.538Z,0.13
2023-02-07T02:36:14.884Z,0.20
2023-02-07T02:38:51.804Z,0.20
2023-02-07T02:41:27.968Z,0.20
2023-02-07T02:44:08.431Z,0.20
2023-02-07T02:46:41.432Z,0.20
2023-02-07T02:49:14.298Z,0.20
2023-02-07T02:51:43.619Z,0.20
2023-02-07T02:54:31.522Z,0.20
2023-02-07T02:57:28.332Z,0.20
2023-02-07T03:00:45.490Z,0.20
2023-02-07T03:03:40.740Z,0.20
2023-02-07T03:06:26.960Z,0.20
2023-02-07T03:09:09.794Z,0.20
2023-02-07T03:11:50.027Z,0.30
2023-02-07T03:14:26.711Z,0.20
2023-02-07T03:17:09.168Z,0.30
2023-02-07T03:19:44.428Z,0.20
2023-02-07T03:22:17.260Z,0.20
2023-02-07T03:24:53.150Z,0.25
2023-02-07T03:27:24.367Z,0.20
2023-02-07T03:29:57.840Z,0.20
2023-02-07T03:32:33.989Z,0.20
2023-02-07T03:35:10.331Z,0.20
2023-02-07T03:37:42.569Z,0.28
2023-02-07T03:40:13.451Z,0.20
2023-02-07T03:42:50.552Z,0.28
2023-02-07T03:45:21.593Z,0.20
2023-02-07T03:47:50.455Z,0.20
2023-02-07T03:50:19.240Z,0.20
2023-02-07T03:52:47.174Z,0.30
2023-02-07T03:55:16.736Z,0.20
2023-02-07T03:57:44.650Z,0.20
2023-02-07T04:00:14.456Z,0.30
2023-02-07T04:02:43.945Z,0.20
2023-02-07T04:05:11.996Z,0.20
2023-02-07T04:07:39.958Z,0.30
2023-02-07T04:10:08.862Z,0.30
2023-02-07T04:12:39.028Z,0.20
2023-02-07T04:15:08.918Z,0.28
2023-02-07T04:17:37.193Z,0.20
2023-02-07T04:20:06.994Z,0.20
2023-02-07T04:22:35.036Z,0.20
2023-02-07T04:25:02.900Z,0.20
2023-02-07T04:27:30.906Z,0.28
2023-02-07T04:30:00.167Z,0.20
2023-02-07T04:32:28.123Z,0.25
2023-02-07T04:34:56.098Z,0.30
2023-02-07T04:37:24.026Z,0.30
2023-02-07T04:39:51.961Z,0.30
2023-02-07T04:42:19.855Z,0.30
2023-02-07T04:44:47.730Z,0.30
2023-02-07T04:47:16.938Z,0.30
2023-02-07T04:49:44.822Z,0.20
2023-02-07T04:52:12.702Z,0.20
2023-02-07T04:54:40.607Z,0.20
2023-02-07T04:57:08.547Z,0.30
2023-02-07T04:59:36.416Z,0.20
2023-02-07T05:02:04.384Z,0.15
2023-02-07T05:04:33.985Z,0.20
2023-02-07T05:07:01.934Z,0.20
2023-02-07T05:09:29.945Z,0.20
2023-02-07T05:11:57.898Z,0.30
2023-02-07T05:14:26.063Z,0.20
2023-02-07T05:16:53.952Z,0.20
2023-02-07T05:19:22.200Z,0.15
2023-02-07T05:21:51.421Z,0.20
2023-02-07T05:24:19.476Z,0.17
2023-02-07T05:26:47.382Z,0.20
2023-02-07T05:29:15.287Z,0.20
2023-02-07T05:32:00.927Z,0.20
2023-02-07T05:34:28.828Z,0.28
2023-02-07T05:36:58.586Z,0.20
2023-02-07T05:39:26.713Z,0.20
2023-02-07T05:41:54.644Z,0.20
2023-02-07T05:44:22.560Z,0.20
2023-02-07T05:46:52.599Z,0.20
2023-02-07T05:49:20.645Z,0.20
2023-02-07T05:51:48.623Z,0.20
2023-02-07T05:54:17.869Z,0.20
2023-02-07T05:56:45.968Z,0.20
2023-02-07T05:59:13.984Z,0.20
2023-02-07T06:01:41.938Z,0.15
2023-02-07T06:04:09.901Z,0.20
2023-02-07T06:06:38.116Z,0.20
2023-02-07T06:09:06.005Z,0.20
2023-02-07T06:11:35.295Z,0.20
2023-02-07T06:14:03.208Z,0.20
2023-02-07T06:16:31.192Z,0.20
2023-02-07T06:18:59.165Z,0.20
2023-02-07T06:21:37.625Z,0.30
2023-02-07T06:24:13.698Z,0.20
2023-02-07T06:26:44.323Z,0.30
2023-02-07T06:29:15.615Z,0.25
2023-02-07T06:31:43.860Z,0.20
2023-02-07T06:34:12.106Z,0.30
2023-02-07T06:36:39.962Z,0.22
2023-02-07T06:39:08.077Z,0.30
2023-02-07T06:41:36.040Z,0.40
2023-02-07T06:44:06.065Z,0.30
2023-02-07T06:46:34.516Z,0.30
2023-02-07T06:49:02.712Z,0.30
2023-02-07T06:51:30.653Z,0.30
2023-02-07T06:53:59.667Z,0.30
2023-02-07T06:56:27.629Z,0.20
2023-02-07T06:58:55.523Z,0.30
2023-02-07T07:01:24.763Z,0.30
2023-02-07T07:03:52.815Z,0.30
2023-02-07T07:06:20.689Z,0.30
2023-02-07T07:08:49.812Z,0.30
2023-02-07T07:11:17.689Z,0.30
2023-02-07T07:13:45.869Z,0.30
2023-02-07T07:16:13.891Z,0.20
2023-02-07T07:18:43.640Z,0.30
2023-02-07T07:21:12.775Z,0.30
2023-02-07T07:23:40.783Z,0.30
2023-02-07T07:26:08.807Z,0.20
2023-02-07T07:28:36.800Z,0.30
2023-02-07T07:31:07.321Z,0.30
2023-02-07T07:33:35.830Z,0.30
2023-02-07T07:36:08.665Z,0.30
2023-02-07T07:41:06.180Z,0.20
2023-02-07T07:43:34.053Z,0.30
2023-02-07T07:46:02.250Z,0.20
2023-02-07T07:48:30.353Z,0.20
2023-02-07T07:50:58.298Z,0.30
2023-02-07T07:53:28.214Z,0.30
2023-02-07T07:55:58.392Z,0.25
2023-02-07T07:58:28.797Z,0.30
2023-02-07T08:00:57.084Z,0.30
2023-02-07T08:03:25.391Z,0.30
2023-02-07T08:05:53.347Z,0.30
2023-02-07T08:08:21.255Z,0.30
2023-02-07T08:10:50.601Z,0.30
2023-02-07T08:13:20.120Z,0.25
2023-02-07T08:15:48.505Z,0.30
2023-02-07T08:18:16.412Z,0.30
2023-02-07T08:20:44.373Z,0.30
2023-02-07T08:23:12.512Z,0.30
2023-02-07T08:25:41.720Z,0.30
2023-02-07T08:28:11.707Z,0.30
2023-02-07T08:30:40.131Z,0.30
2023-02-07T08:33:08.225Z,0.30
2023-02-07T08:35:37.396Z,0.30
2023-02-07T08:38:05.407Z,0.30
2023-02-07T08:40:33.525Z,0.20
2023-02-07T08:43:01.757Z,0.30
2023-02-07T08:45:31.118Z,0.30
2023-02-07T08:47:59.575Z,0.30
2023-02-07T08:50:27.485Z,0.20
2023-02-07T08:52:55.374Z,0.20
2023-02-07T08:55:23.301Z,0.20
2023-02-07T08:57:51.218Z,0.30
2023-02-07T09:00:19.728Z,0.25
2023-02-07T09:02:48.962Z,0.20
2023-02-07T09:05:17.094Z,0.20
2023-02-07T09:07:44.998Z,0.30
2023-02-07T09:10:12.914Z,0.30
2023-02-07T09:12:40.786Z,0.20
2023-02-07T09:15:10.048Z,0.20
2023-02-07T09:17:38.163Z,0.30
2023-02-07T09:20:08.808Z,0.20
2023-02-07T09:22:56.891Z,0.20
2023-02-07T09:25:25.122Z,0.30
2023-02-07T09:27:53.368Z,0.30
2023-02-07T09:30:21.413Z,0.30
2023-02-07T09:32:49.299Z,0.30
2023-02-07T09:35:18.724Z,0.30
2023-02-07T09:37:49.743Z,0.20
2023-02-07T09:40:20.412Z,0.20
2023-02-07T09:42:57.905Z,0.20
2023-02-07T09:45:32.034Z,0.20
2023-02-07T09:48:10.917Z,0.30
2023-02-07T09:50:49.288Z,0.30
2023-02-07T09:53:23.252Z,0.20
2023-02-07T09:55:55.945Z,0.20
2023-02-07T09:58:36.092Z,0.20
2023-02-07T10:01:13.400Z,0.20
2023-02-07T10:03:56.539Z,0.20
2023-02-07T10:06:29.413Z,0.20
2023-02-07T10:09:01.317Z,0.20
2023-02-07T10:11:43.636Z,0.20
2023-02-07T10:14:40.739Z,0.20
2023-02-07T10:17:32.135Z,0.20
2023-02-07T10:20:22.051Z,0.20
2023-02-07T10:23:05.105Z,0.20
2023-02-07T10:25:49.453Z,0.20
2023-02-07T10:28:51.533Z,0.20
2023-02-07T10:31:22.300Z,0.20
2023-02-07T10:33:56.036Z,0.20
2023-02-07T10:36:29.643Z,0.20
2023-02-07T10:39:12.334Z,0.10
2023-02-07T10:41:45.078Z,0.20
2023-02-07T10:44:18.470Z,0.10
2023-02-07T10:46:56.536Z,0.20
2023-02-07T10:49:30.537Z,0.10
2023-02-07T10:52:03.498Z,0.20
2023-02-07T10:54:53.454Z,0.10
2023-02-07T10:57:25.540Z,0.20
2023-02-07T11:00:02.108Z,0.20
2023-02-07T11:02:44.732Z,0.10
2023-02-07T11:05:42.593Z,0.17
2023-02-07T11:08:25.538Z,0.17
2023-02-07T11:10:57.673Z,0.10
2023-02-07T11:13:29.445Z,0.20
2023-02-07T11:16:06.075Z,0.20
2023-02-07T11:18:45.483Z,0.20
2023-02-07T11:21:28.035Z,0.10
2023-02-07T11:24:01.473Z,0.10
2023-02-07T11:26:32.406Z,0.20
2023-02-07T11:29:13.665Z,0.20
2023-02-07T11:31:43.804Z,0.20
2023-02-07T11:34:46.890Z,0.13
2023-02-07T11:37:26.005Z,0.10
2023-02-07T11:40:18.159Z,0.10
2023-02-07T11:42:57.372Z,0.20
2023-02-07T11:45:27.832Z,0.10
2023-02-07T11:48:02.158Z,0.10
2023-02-07T11:50:34.906Z,0.10
2023-02-07T11:53:03.895Z,0.10
2023-02-07T11:55:37.762Z,0.10
2023-02-07T11:58:12.535Z,0.10
2023-02-07T12:00:40.797Z,0.10
2023-02-07T12:03:22.356Z,0.10
2023-02-07T12:05:55.141Z,0.10
2023-02-07T12:08:28.088Z,0.10
2023-02-07T12:11:01.664Z,0.10
2023-02-07T12:13:37.772Z,0.10
2023-02-07T12:16:13.997Z,0.10
2023-02-07T12:18:47.713Z,0.10
2023-02-07T12:21:24.628Z,0.10
2023-02-07T12:24:00.419Z,0.10
2023-02-07T12:26:32.561Z,0.10
2023-02-07T12:29:21.775Z,0.10
2023-02-07T12:32:05.948Z,0.10
2023-02-07T12:34:42.763Z,0.10
2023-02-07T12:37:27.418Z,0.10
2023-02-07T12:40:05.206Z,0.05
2023-02-07T12:42:41.472Z,0.10
2023-02-07T12:45:17.533Z,0.10
2023-02-07T12:47:55.733Z,0.10
2023-02-07T12:50:54.408Z,0.00
2023-02-07T12:53:41.019Z,0.10
2023-02-07T12:56:31.171Z,0.10
2023-02-07T12:59:14.489Z,0.10
2023-02-07T13:01:53.140Z,0.10
2023-02-07T13:04:55.164Z,0.10
2023-02-07T13:07:42.903Z,0.10
2023-02-07T13:10:23.655Z,0.10
2023-02-07T13:13:03.122Z,0.00
2023-02-07T13:15:44.476Z,0.10
2023-02-07T13:18:22.711Z,0.10
2023-02-07T13:21:05.364Z,0.10
2023-02-07T13:23:38.493Z,0.10
2023-02-07T13:26:11.783Z,0.10
2023-02-07T13:28:46.001Z,0.10
2023-02-07T13:31:18.878Z,0.10
2023-02-07T13:34:17.660Z,0.10
2023-02-07T13:36:49.217Z,0.10
2023-02-07T13:39:32.209Z,0.10
2023-02-07T13:42:19.529Z,0.10
2023-02-07T13:44:58.353Z,0.10
2023-02-07T13:47:47.643Z,0.10
2023-02-07T13:50:44.905Z,0.10
2023-02-07T13:53:34.969Z,0.10
2023-02-07T13:56:09.219Z,0.10
2023-02-07T13:59:12.985Z,0.10
2023-02-07T14:01:53.745Z,0.10
2023-02-07T14:04:24.399Z,0.00
2023-02-07T14:07:11.700Z,0.10
2023-02-07T14:09:45.786Z,0.00
2023-02-07T14:12:23.510Z,0.08
2023-02-07T14:15:02.190Z,0.10
2023-02-07T14:18:00.477Z,0.00
2023-02-07T14:20:50.891Z,0.10
2023-02-07T14:23:21.424Z,0.10
2023-02-07T14:25:51.799Z,0.10
2023-02-07T14:28:36.133Z,0.10
2023-02-07T14:31:22.543Z,0.10
2023-02-07T14:34:14.018Z,0.00
2023-02-07T14:36:43.167Z,0.10
2023-02-07T14:39:32.346Z,0.10
2023-02-07T14:42:17.780Z,0.10
2023-02-07T14:44:49.885Z,0.10
2023-02-07T14:47:25.646Z,0.10
2023-02-07T14:49:58.599Z,0.10
2023-02-07T14:52:31.850Z,0.08
2023-02-07T14:55:05.841Z,0.10
2023-02-07T14:57:47.046Z,0.10
2023-02-07T15:00:31.361Z,0.10
2023-02-07T15:03:05.113Z,0.10
2023-02-07T15:05:37.092Z,0.10
2023-02-07T15:08:17.627Z,0.10
2023-02-07T15:10:56.777Z,0.10
2023-02-07T15:13:31.048Z,0.10
2023-02-07T15:16:05.500Z,0.10
2023-02-07T15:18:39.614Z,0.10
2023-02-07T15:21:16.724Z,0.10
2023-02-07T15:23:50.990Z,0.10
2023-02-07T15:26:21.502Z,0.10
2023-02-07T15:29:00.305Z,0.08
2023-02-07T15:31:29.371Z,0.10
2023-02-07T15:34:01.002Z,0.10
2023-02-07T15:36:35.027Z,0.10
2023-02-07T15:39:07.253Z,0.10
2023-02-07T15:41:36.643Z,0.10
2023-02-07T15:44:11.529Z,0.10
2023-02-07T15:46:47.827Z,0.10
2023-02-07T15:49:29.180Z,0.10
2023-02-07T15:52:06.170Z,0.10
2023-02-07T15:54:40.379Z,0.10
2023-02-07T15:57:18.767Z,0.10
2023-02-07T15:59:52.113Z,0.10
2023-02-07T16:02:29.948Z,0.10
2023-02-07T16:04:58.737Z,0.10
2023-02-07T16:07:26.920Z,0.10
2023-02-07T16:09:54.825Z,0.10
2023-02-07T16:12:49.872Z,0.10
2023-02-07T16:15:32.099Z,0.10
2023-02-07T16:18:02.149Z,0.10
2023-02-07T16:20:33.299Z,0.10
2023-02-07T16:23:05.365Z,0.10
2023-02-07T16:25:36.557Z,0.10
2023-02-07T16:28:15.351Z,0.10
2023-02-07T16:30:45.165Z,0.10
2023-02-07T16:33:14.679Z,0.10
2023-02-07T16:35:42.709Z,0.10
2023-02-07T16:38:10.784Z,0.10
2023-02-07T16:40:39.015Z,0.10
2023-02-07T16:43:09.833Z,0.15
2023-02-07T16:45:40.194Z,0.10
2023-02-07T16:48:15.857Z,0.10
2023-02-07T16:50:44.149Z,0.10
2023-02-07T16:53:12.526Z,0.10
2023-02-07T16:55:41.088Z,0.10
2023-02-07T16:58:24.635Z,0.00
2023-02-07T17:00:52.575Z,0.10
2023-02-07T17:03:21.523Z,0.10
2023-02-07T17:05:49.639Z,0.10
2023-02-07T17:08:22.725Z,0.15
2023-02-07T17:10:59.022Z,0.10
2023-02-07T17:13:28.779Z,0.20
2023-02-07T17:15:58.106Z,0.10
2023-02-07T17:18:27.021Z,0.10
2023-02-07T17:20:55.905Z,0.20
2023-02-07T17:23:25.244Z,0.10
2023-02-07T17:25:53.318Z,0.10
2023-02-07T17:28:21.294Z,0.10
2023-02-07T17:30:50.833Z,0.10
2023-02-07T17:33:18.729Z,0.10
2023-02-07T17:35:46.675Z,0.10
2023-02-07T17:38:14.559Z,0.10
2023-02-07T17:40:42.885Z,0.10
2023-02-07T17:43:10.895Z,0.10
2023-02-07T17:45:38.935Z,0.10
2023-02-07T17:48:08.266Z,0.10
2023-02-07T17:50:40.771Z,0.10
2023-02-07T17:53:11.232Z,0.10
2023-02-07T17:55:39.923Z,0.20
2023-02-07T17:58:08.228Z,0.10
2023-02-07T18:00:39.565Z,0.10
2023-02-07T18:03:10.065Z,0.10
2023-02-07T18:05:39.757Z,0.10
2023-02-07T18:08:07.757Z,0.20
2023-02-07T18:10:36.774Z,0.20
2023-02-07T18:13:04.828Z,0.10
2023-02-07T18:15:32.874Z,0.10
2023-02-07T18:18:01.302Z,0.10
2023-02-07T18:20:33.980Z,0.10
2023-02-07T18:23:02.212Z,0.10
2023-02-07T18:25:34.860Z,0.15
2023-02-07T18:28:02.806Z,0.10
2023-02-07T18:30:33.773Z,0.10
2023-02-07T18:33:01.769Z,0.20
2023-02-07T18:35:31.018Z,0.10
2023-02-07T18:37:59.512Z,0.10
2023-02-07T18:40:28.130Z,0.20
2023-02-07T18:42:57.032Z,0.10
2023-02-07T18:45:25.635Z,0.10
2023-02-07T18:47:57.179Z,0.10
2023-02-07T18:50:25.451Z,0.10
2023-02-07T18:52:55.307Z,0.10
2023-02-07T18:55:23.274Z,0.20
2023-02-07T18:57:51.237Z,0.20
2023-02-07T19:00:20.096Z,0.20
2023-02-07T19:02:48.527Z,0.20
2023-02-07T19:05:16.867Z,0.10
2023-02-07T19:07:44.732Z,0.10
2023-02-07T19:10:16.502Z,0.10
2023-02-07T19:12:44.422Z,0.10
2023-02-07T19:15:12.352Z,0.20
2023-02-07T19:17:40.280Z,0.20
2023-02-07T19:20:10.083Z,0.20
2023-02-07T19:22:38.428Z,0.10
2023-02-07T19:25:07.386Z,0.10
2023-02-07T19:27:36.609Z,0.20
2023-02-07T19:30:06.700Z,0.15
2023-02-07T19:32:36.359Z,0.20
2023-02-07T19:35:07.305Z,0.20
2023-02-07T19:37:35.219Z,0.17
2023-02-07T19:40:03.314Z,0.20
2023-02-07T19:42:31.404Z,0.17
2023-02-07T19:45:00.706Z,0.10
2023-02-07T19:47:28.877Z,0.20
2023-02-07T19:49:56.733Z,0.20
2023-02-07T19:52:24.944Z,0.20
2023-02-07T19:54:55.733Z,0.20
2023-02-07T19:57:23.902Z,0.10
2023-02-07T19:59:51.906Z,0.20
2023-02-07T20:02:23.448Z,0.20
2023-02-07T20:04:54.533Z,0.20
2023-02-07T20:07:23.346Z,0.20
2023-02-07T20:09:53.459Z,0.20
2023-02-07T20:12:21.425Z,0.20
2023-02-07T20:14:49.384Z,0.20
2023-02-07T20:17:18.443Z,0.20
2023-02-07T20:19:47.682Z,0.28
2023-02-07T20:22:15.631Z,0.10
2023-02-07T20:24:43.818Z,0.15
2023-02-07T20:27:11.768Z,0.20
2023-02-07T20:29:40.213Z,0.15
2023-02-07T20:32:10.993Z,0.20
2023-02-07T20:34:41.457Z,0.20
2023-02-07T20:37:11.345Z,0.25
2023-02-07T20:39:39.788Z,0.20
2023-02-07T20:42:07.776Z,0.20
2023-02-07T20:44:35.779Z,0.20
2023-02-07T20:47:04.801Z,0.20
2023-02-07T20:49:33.261Z,0.20
2023-02-07T20:52:01.469Z,0.20
2023-02-07T20:54:31.748Z,0.20
2023-02-07T20:57:00.151Z,0.20
2023-02-07T20:59:32.562Z,0.20
2023-02-07T21:02:00.944Z,0.20
2023-02-07T21:04:30.390Z,0.20
2023-02-07T21:06:59.318Z,0.10
2023-02-07T21:09:27.436Z,0.20
2023-02-07T21:11:58.032Z,0.30
2023-02-07T21:14:30.096Z,0.30
2023-02-07T21:17:02.257Z,0.20
2023-02-07T21:19:30.641Z,0.20
2023-02-07T21:21:58.642Z,0.30
2023-02-07T21:24:27.450Z,0.20
2023-02-07T21:26:59.698Z,0.20
2023-02-07T21:29:27.896Z,0.20
2023-02-07T21:31:56.468Z,0.20
2023-02-07T21:34:28.025Z,0.20
2023-02-07T21:36:55.897Z,0.20
2023-02-07T21:39:24.843Z,0.20
2023-02-07T21:41:53.183Z,0.20
2023-02-07T21:44:22.652Z,0.20
2023-02-07T21:46:52.135Z,0.20
2023-02-07T21:49:20.656Z,0.20
2023-02-07T21:51:53.338Z,0.22
2023-02-07T21:54:21.606Z,0.20
2023-02-07T21:56:51.784Z,0.20
2023-02-07T21:59:23.350Z,0.20
2023-02-07T22:01:51.685Z,0.20
2023-02-07T22:04:20.077Z,0.20
2023-02-07T22:06:49.324Z,0.22
2023-02-07T22:09:21.936Z,0.20
2023-02-07T22:11:50.626Z,0.22
2023-02-07T22:14:20.603Z,0.20
2023-02-07T22:16:53.942Z,0.20
2023-02-07T22:19:22.793Z,0.20
2023-02-07T22:21:51.574Z,0.20
2023-02-07T22:24:21.467Z,0.30
2023-02-07T22:26:49.509Z,0.20
2023-02-07T22:29:17.491Z,0.20
2023-02-07T22:31:45.509Z,0.20
2023-02-07T22:34:15.789Z,0.20
2023-02-07T22:36:45.779Z,0.20
2023-02-07T22:39:16.817Z,0.20
2023-02-07T22:41:45.351Z,0.20
2023-02-07T22:44:13.302Z,0.20
2023-02-07T22:46:41.254Z,0.20
2023-02-07T22:49:09.191Z,0.30
2023-02-07T22:51:39.236Z,0.30
2023-02-07T22:54:11.024Z,0.22
2023-02-07T22:56:40.322Z,0.30
2023-02-07T22:59:08.438Z,0.20
2023-02-07T23:01:39.849Z,0.20
2023-02-07T23:04:12.504Z,0.20
2023-02-07T23:06:42.080Z,0.20
2023-02-07T23:09:10.544Z,0.20
2023-02-07T23:11:38.794Z,0.30
2023-02-07T23:14:07.246Z,0.30
2023-02-07T23:16:36.595Z,0.20
2023-02-07T23:19:10.013Z,0.22
2023-02-07T23:21:38.075Z,0.30
2023-02-07T23:24:07.990Z,0.25
2023-02-07T23:26:36.461Z,0.30
2023-02-07T23:29:05.274Z,0.30
2023-02-07T23:31:34.849Z,0.30
2023-02-07T23:34:02.837Z,0.28
2023-02-07T23:36:30.798Z,0.30
2023-02-07T23:38:58.726Z,0.20
2023-02-07T23:41:28.432Z,0.30
2023-02-07T23:43:56.950Z,0.20
2023-02-07T23:46:24.972Z,0.30
2023-02-07T23:48:52.975Z,0.20
2023-02-07T23:51:20.986Z,0.30
2023-02-07T23:53:48.948Z,0.20
2023-02-07T23:56:20.338Z,0.20
2023-02-07T23:58:51.632Z,0.20
